sensor_id;sensor_type;location;lat;lon;timestamp;P1;durP1;ratioP1;P2;durP2;ratioP2
17127;SDS011;8679;50.842;4.322;2023-08-12T00:00:28;1.55;;;0.73;;
17127;SDS011;8679;50.842;4.322;2023-08-12T00:02:54;3.70;;;1.17;;
17127;SDS011;8679;50.842;4.322;2023-08-12T00:05:20;1.70;;;0.90;;
17127;SDS011;8679;50.842;4.322;2023-08-12T00:07:47;3.92;;;1.30;;
17127;SDS011;8679;50.842;4.322;2023-08-12T00:10:13;4.65;;;1.20;;
17127;SDS011;8679;50.842;4.322;2023-08-12T00:12:40;3.50;;;2.05;;
17127;SDS011;8679;50.842;4.322;2023-08-12T00:15:06;2.22;;;1.13;;
17127;SDS011;8679;50.842;4.322;2023-08-12T00:17:33;3.15;;;1.85;;
17127;SDS011;8679;50.842;4.322;2023-08-12T00:20:00;2.40;;;1.52;;
17127;SDS011;8679;50.842;4.322;2023-08-12T00:22:30;1.17;;;0.95;;
17127;SDS011;8679;50.842;4.322;2023-08-12T00:24:56;1.58;;;1.35;;
17127;SDS011;8679;50.842;4.322;2023-08-12T00:27:22;3.35;;;1.83;;
17127;SDS011;8679;50.842;4.322;2023-08-12T00:29:48;1.65;;;1.33;;
17127;SDS011;8679;50.842;4.322;2023-08-12T00:32:14;1.00;;;0.90;;
17127;SDS011;8679;50.842;4.322;2023-08-12T00:34:40;2.40;;;1.30;;
17127;SDS011;8679;50.842;4.322;2023-08-12T00:37:06;1.60;;;1.15;;
17127;SDS011;8679;50.842;4.322;2023-08-12T00:39:32;2.53;;;1.20;;
17127;SDS011;8679;50.842;4.322;2023-08-12T00:41:58;2.72;;;1.17;;
17127;SDS011;8679;50.842;4.322;2023-08-12T00:44:25;4.35;;;1.17;;
17127;SDS011;8679;50.842;4.322;2023-08-12T00:46:50;1.75;;;1.02;;
17127;SDS011;8679;50.842;4.322;2023-08-12T00:49:17;3.83;;;1.05;;
17127;SDS011;8679;50.842;4.322;2023-08-12T00:51:43;1.73;;;1.25;;
17127;SDS011;8679;50.842;4.322;2023-08-12T00:54:12;2.55;;;1.30;;
17127;SDS011;8679;50.842;4.322;2023-08-12T00:56:39;5.80;;;1.42;;
17127;SDS011;8679;50.842;4.322;2023-08-12T00:59:05;2.20;;;1.02;;
17127;SDS011;8679;50.842;4.322;2023-08-12T01:01:32;1.70;;;1.10;;
17127;SDS011;8679;50.842;4.322;2023-08-12T01:03:58;3.92;;;1.52;;
17127;SDS011;8679;50.842;4.322;2023-08-12T01:06:24;2.97;;;1.50;;
17127;SDS011;8679;50.842;4.322;2023-08-12T01:08:50;0.93;;;0.88;;
17127;SDS011;8679;50.842;4.322;2023-08-12T01:16:23;1.50;;;1.13;;
17127;SDS011;8679;50.842;4.322;2023-08-12T01:18:52;2.58;;;1.40;;
17127;SDS011;8679;50.842;4.322;2023-08-12T01:21:18;1.75;;;1.40;;
17127;SDS011;8679;50.842;4.322;2023-08-12T01:23:47;4.15;;;1.70;;
17127;SDS011;8679;50.842;4.322;2023-08-12T01:26:13;2.67;;;1.67;;
17127;SDS011;8679;50.842;4.322;2023-08-12T01:28:39;2.47;;;1.60;;
17127;SDS011;8679;50.842;4.322;2023-08-12T01:31:12;3.05;;;1.60;;
17127;SDS011;8679;50.842;4.322;2023-08-12T01:33:51;2.50;;;1.88;;
17127;SDS011;8679;50.842;4.322;2023-08-12T01:36:20;2.10;;;1.30;;
17127;SDS011;8679;50.842;4.322;2023-08-12T01:38:47;1.92;;;1.50;;
17127;SDS011;8679;50.842;4.322;2023-08-12T01:41:16;1.70;;;1.23;;
17127;SDS011;8679;50.842;4.322;2023-08-12T01:43:42;6.43;;;2.35;;
17127;SDS011;8679;50.842;4.322;2023-08-12T01:46:08;2.35;;;1.20;;
17127;SDS011;8679;50.842;4.322;2023-08-12T01:48:35;5.57;;;1.55;;
17127;SDS011;8679;50.842;4.322;2023-08-12T01:51:01;3.45;;;1.50;;
17127;SDS011;8679;50.842;4.322;2023-08-12T01:53:28;2.58;;;1.55;;
17127;SDS011;8679;50.842;4.322;2023-08-12T01:55:54;2.28;;;1.23;;
17127;SDS011;8679;50.842;4.322;2023-08-12T01:58:20;2.67;;;1.70;;
17127;SDS011;8679;50.842;4.322;2023-08-12T02:00:46;2.53;;;1.58;;
17127;SDS011;8679;50.842;4.322;2023-08-12T02:03:12;3.20;;;1.60;;
17127;SDS011;8679;50.842;4.322;2023-08-12T02:05:38;1.67;;;1.02;;
17127;SDS011;8679;50.842;4.322;2023-08-12T02:08:04;3.72;;;1.65;;
17127;SDS011;8679;50.842;4.322;2023-08-12T02:10:30;3.08;;;1.52;;
17127;SDS011;8679;50.842;4.322;2023-08-12T02:12:56;2.15;;;1.83;;
17127;SDS011;8679;50.842;4.322;2023-08-12T02:15:22;2.28;;;1.42;;
17127;SDS011;8679;50.842;4.322;2023-08-12T02:17:48;3.05;;;1.40;;
17127;SDS011;8679;50.842;4.322;2023-08-12T02:20:14;5.68;;;1.92;;
17127;SDS011;8679;50.842;4.322;2023-08-12T02:22:40;3.00;;;1.27;;
17127;SDS011;8679;50.842;4.322;2023-08-12T02:25:06;2.55;;;1.13;;
17127;SDS011;8679;50.842;4.322;2023-08-12T02:27:33;3.60;;;1.63;;
17127;SDS011;8679;50.842;4.322;2023-08-12T02:29:59;1.95;;;1.33;;
17127;SDS011;8679;50.842;4.322;2023-08-12T02:32:25;6.10;;;1.48;;
17127;SDS011;8679;50.842;4.322;2023-08-12T02:34:51;2.47;;;1.63;;
17127;SDS011;8679;50.842;4.322;2023-08-12T02:37:17;3.17;;;1.50;;
17127;SDS011;8679;50.842;4.322;2023-08-12T02:39:43;2.15;;;1.58;;
17127;SDS011;8679;50.842;4.322;2023-08-12T02:42:09;4.00;;;2.13;;
17127;SDS011;8679;50.842;4.322;2023-08-12T02:44:35;5.18;;;1.38;;
17127;SDS011;8679;50.842;4.322;2023-08-12T02:47:01;2.15;;;1.33;;
17127;SDS011;8679;50.842;4.322;2023-08-12T02:49:27;3.67;;;2.38;;
17127;SDS011;8679;50.842;4.322;2023-08-12T02:51:53;1.80;;;1.20;;
17127;SDS011;8679;50.842;4.322;2023-08-12T02:54:19;8.18;;;1.80;;
17127;SDS011;8679;50.842;4.322;2023-08-12T02:56:45;6.35;;;1.73;;
17127;SDS011;8679;50.842;4.322;2023-08-12T02:59:11;3.08;;;1.55;;
17127;SDS011;8679;50.842;4.322;2023-08-12T03:01:37;2.33;;;1.52;;
17127;SDS011;8679;50.842;4.322;2023-08-12T03:04:03;2.42;;;1.73;;
17127;SDS011;8679;50.842;4.322;2023-08-12T03:06:29;5.28;;;1.83;;
17127;SDS011;8679;50.842;4.322;2023-08-12T03:08:55;2.67;;;1.35;;
17127;SDS011;8679;50.842;4.322;2023-08-12T03:11:21;3.60;;;1.63;;
17127;SDS011;8679;50.842;4.322;2023-08-12T03:13:47;2.83;;;1.80;;
17127;SDS011;8679;50.842;4.322;2023-08-12T03:16:14;3.22;;;2.05;;
17127;SDS011;8679;50.842;4.322;2023-08-12T03:18:40;6.65;;;2.50;;
17127;SDS011;8679;50.842;4.322;2023-08-12T03:21:06;3.53;;;1.80;;
17127;SDS011;8679;50.842;4.322;2023-08-12T03:23:33;4.65;;;1.98;;
17127;SDS011;8679;50.842;4.322;2023-08-12T03:25:59;3.78;;;1.73;;
17127;SDS011;8679;50.842;4.322;2023-08-12T03:28:25;1.95;;;1.48;;
17127;SDS011;8679;50.842;4.322;2023-08-12T03:30:51;2.53;;;1.60;;
17127;SDS011;8679;50.842;4.322;2023-08-12T03:33:18;5.00;;;1.95;;
17127;SDS011;8679;50.842;4.322;2023-08-12T03:35:45;3.45;;;1.73;;
17127;SDS011;8679;50.842;4.322;2023-08-12T03:38:11;3.90;;;2.15;;
17127;SDS011;8679;50.842;4.322;2023-08-12T03:40:38;2.47;;;1.52;;
17127;SDS011;8679;50.842;4.322;2023-08-12T03:43:04;1.77;;;1.60;;
17127;SDS011;8679;50.842;4.322;2023-08-12T03:45:30;2.17;;;1.60;;
17127;SDS011;8679;50.842;4.322;2023-08-12T03:47:56;2.63;;;1.63;;
17127;SDS011;8679;50.842;4.322;2023-08-12T03:50:22;2.30;;;1.30;;
17127;SDS011;8679;50.842;4.322;2023-08-12T03:52:48;2.35;;;1.55;;
17127;SDS011;8679;50.842;4.322;2023-08-12T03:55:14;3.35;;;1.50;;
17127;SDS011;8679;50.842;4.322;2023-08-12T03:57:40;2.55;;;1.60;;
17127;SDS011;8679;50.842;4.322;2023-08-12T04:00:06;4.22;;;1.55;;
17127;SDS011;8679;50.842;4.322;2023-08-12T04:02:33;1.70;;;1.30;;
17127;SDS011;8679;50.842;4.322;2023-08-12T04:04:59;4.85;;;1.30;;
17127;SDS011;8679;50.842;4.322;2023-08-12T04:07:25;2.33;;;1.30;;
17127;SDS011;8679;50.842;4.322;2023-08-12T04:09:52;3.45;;;1.40;;
17127;SDS011;8679;50.842;4.322;2023-08-12T04:12:18;3.13;;;1.50;;
17127;SDS011;8679;50.842;4.322;2023-08-12T04:14:44;1.85;;;1.50;;
17127;SDS011;8679;50.842;4.322;2023-08-12T04:17:10;2.13;;;1.50;;
17127;SDS011;8679;50.842;4.322;2023-08-12T04:19:36;2.45;;;1.27;;
17127;SDS011;8679;50.842;4.322;2023-08-12T04:22:02;2.65;;;1.35;;
17127;SDS011;8679;50.842;4.322;2023-08-12T04:24:28;1.85;;;1.55;;
17127;SDS011;8679;50.842;4.322;2023-08-12T04:26:54;1.90;;;1.38;;
17127;SDS011;8679;50.842;4.322;2023-08-12T04:29:20;1.85;;;1.38;;
17127;SDS011;8679;50.842;4.322;2023-08-12T04:31:46;1.02;;;1.00;;
17127;SDS011;8679;50.842;4.322;2023-08-12T04:34:12;3.00;;;1.35;;
17127;SDS011;8679;50.842;4.322;2023-08-12T04:36:38;1.98;;;1.02;;
17127;SDS011;8679;50.842;4.322;2023-08-12T04:39:04;1.05;;;0.95;;
17127;SDS011;8679;50.842;4.322;2023-08-12T04:41:30;3.83;;;1.08;;
17127;SDS011;8679;50.842;4.322;2023-08-12T04:43:58;1.90;;;1.30;;
17127;SDS011;8679;50.842;4.322;2023-08-12T04:46:24;1.33;;;1.00;;
17127;SDS011;8679;50.842;4.322;2023-08-12T04:48:50;1.60;;;0.90;;
17127;SDS011;8679;50.842;4.322;2023-08-12T04:51:16;1.60;;;1.30;;
17127;SDS011;8679;50.842;4.322;2023-08-12T04:53:42;2.05;;;1.05;;
17127;SDS011;8679;50.842;4.322;2023-08-12T04:56:08;1.38;;;0.93;;
17127;SDS011;8679;50.842;4.322;2023-08-12T04:58:34;1.63;;;1.35;;
17127;SDS011;8679;50.842;4.322;2023-08-12T05:01:00;1.13;;;0.88;;
17127;SDS011;8679;50.842;4.322;2023-08-12T05:03:26;1.48;;;1.08;;
17127;SDS011;8679;50.842;4.322;2023-08-12T05:05:53;1.52;;;0.82;;
17127;SDS011;8679;50.842;4.322;2023-08-12T05:08:19;1.65;;;1.48;;
17127;SDS011;8679;50.842;4.322;2023-08-12T05:10:48;2.20;;;1.33;;
17127;SDS011;8679;50.842;4.322;2023-08-12T05:13:14;3.08;;;1.55;;
17127;SDS011;8679;50.842;4.322;2023-08-12T05:15:40;4.70;;;1.15;;
17127;SDS011;8679;50.842;4.322;2023-08-12T05:18:06;2.75;;;1.67;;
17127;SDS011;8679;50.842;4.322;2023-08-12T05:20:32;1.75;;;1.48;;
17127;SDS011;8679;50.842;4.322;2023-08-12T05:22:58;2.05;;;1.58;;
17127;SDS011;8679;50.842;4.322;2023-08-12T05:25:24;1.73;;;1.27;;
17127;SDS011;8679;50.842;4.322;2023-08-12T05:27:50;2.17;;;1.40;;
17127;SDS011;8679;50.842;4.322;2023-08-12T05:30:16;2.63;;;1.75;;
17127;SDS011;8679;50.842;4.322;2023-08-12T05:32:42;2.17;;;1.52;;
17127;SDS011;8679;50.842;4.322;2023-08-12T05:35:08;2.08;;;1.50;;
17127;SDS011;8679;50.842;4.322;2023-08-12T05:37:34;2.38;;;1.58;;
17127;SDS011;8679;50.842;4.322;2023-08-12T05:40:01;1.92;;;1.42;;
17127;SDS011;8679;50.842;4.322;2023-08-12T05:42:28;1.63;;;1.40;;
17127;SDS011;8679;50.842;4.322;2023-08-12T05:44:54;2.78;;;1.80;;
17127;SDS011;8679;50.842;4.322;2023-08-12T05:47:20;3.33;;;2.00;;
17127;SDS011;8679;50.842;4.322;2023-08-12T05:49:46;3.60;;;2.03;;
17127;SDS011;8679;50.842;4.322;2023-08-12T05:52:12;2.72;;;1.92;;
17127;SDS011;8679;50.842;4.322;2023-08-12T05:54:38;2.25;;;1.52;;
17127;SDS011;8679;50.842;4.322;2023-08-12T05:57:04;4.00;;;1.90;;
17127;SDS011;8679;50.842;4.322;2023-08-12T05:59:30;2.95;;;1.15;;
17127;SDS011;8679;50.842;4.322;2023-08-12T06:01:56;3.33;;;1.38;;
17127;SDS011;8679;50.842;4.322;2023-08-12T06:04:22;2.55;;;1.65;;
17127;SDS011;8679;50.842;4.322;2023-08-12T06:06:48;2.05;;;1.50;;
17127;SDS011;8679;50.842;4.322;2023-08-12T06:09:14;3.05;;;1.85;;
17127;SDS011;8679;50.842;4.322;2023-08-12T06:11:40;2.85;;;1.67;;
17127;SDS011;8679;50.842;4.322;2023-08-12T06:14:06;2.40;;;1.67;;
17127;SDS011;8679;50.842;4.322;2023-08-12T06:16:32;2.50;;;1.45;;
17127;SDS011;8679;50.842;4.322;2023-08-12T06:18:59;1.42;;;1.20;;
17127;SDS011;8679;50.842;4.322;2023-08-12T06:21:25;1.20;;;1.02;;
17127;SDS011;8679;50.842;4.322;2023-08-12T06:23:52;3.35;;;1.65;;
17127;SDS011;8679;50.842;4.322;2023-08-12T06:26:18;3.35;;;1.80;;
17127;SDS011;8679;50.842;4.322;2023-08-12T06:28:44;1.48;;;1.08;;
17127;SDS011;8679;50.842;4.322;2023-08-12T06:31:10;0.85;;;0.77;;
17127;SDS011;8679;50.842;4.322;2023-08-12T06:33:37;1.90;;;1.20;;
17127;SDS011;8679;50.842;4.322;2023-08-12T06:36:03;1.35;;;0.85;;
17127;SDS011;8679;50.842;4.322;2023-08-12T06:38:29;1.48;;;1.10;;
17127;SDS011;8679;50.842;4.322;2023-08-12T06:40:55;1.23;;;1.10;;
17127;SDS011;8679;50.842;4.322;2023-08-12T06:43:21;1.00;;;0.70;;
17127;SDS011;8679;50.842;4.322;2023-08-12T06:45:47;1.42;;;0.80;;
17127;SDS011;8679;50.842;4.322;2023-08-12T06:48:13;3.35;;;0.80;;
17127;SDS011;8679;50.842;4.322;2023-08-12T06:50:39;2.35;;;0.85;;
17127;SDS011;8679;50.842;4.322;2023-08-12T06:53:05;2.03;;;0.90;;
17127;SDS011;8679;50.842;4.322;2023-08-12T06:55:32;1.23;;;0.88;;
17127;SDS011;8679;50.842;4.322;2023-08-12T06:57:58;1.00;;;0.80;;
17127;SDS011;8679;50.842;4.322;2023-08-12T07:00:24;1.63;;;0.80;;
17127;SDS011;8679;50.842;4.322;2023-08-12T07:02:50;2.67;;;1.10;;
17127;SDS011;8679;50.842;4.322;2023-08-12T07:05:16;2.45;;;1.40;;
17127;SDS011;8679;50.842;4.322;2023-08-12T07:07:42;3.05;;;1.92;;
17127;SDS011;8679;50.842;4.322;2023-08-12T07:10:08;4.25;;;2.67;;
17127;SDS011;8679;50.842;4.322;2023-08-12T07:12:34;4.85;;;3.08;;
17127;SDS011;8679;50.842;4.322;2023-08-12T07:15:00;4.88;;;3.47;;
17127;SDS011;8679;50.842;4.322;2023-08-12T07:17:26;5.45;;;3.53;;
17127;SDS011;8679;50.842;4.322;2023-08-12T07:19:52;6.13;;;3.58;;
17127;SDS011;8679;50.842;4.322;2023-08-12T07:22:18;8.90;;;4.47;;
17127;SDS011;8679;50.842;4.322;2023-08-12T07:24:45;7.18;;;4.05;;
17127;SDS011;8679;50.842;4.322;2023-08-12T07:27:11;5.55;;;3.50;;
17127;SDS011;8679;50.842;4.322;2023-08-12T07:29:37;5.70;;;3.75;;
17127;SDS011;8679;50.842;4.322;2023-08-12T07:32:03;5.38;;;3.28;;
17127;SDS011;8679;50.842;4.322;2023-08-12T07:34:30;4.55;;;3.05;;
17127;SDS011;8679;50.842;4.322;2023-08-12T07:36:56;6.03;;;3.75;;
17127;SDS011;8679;50.842;4.322;2023-08-12T07:39:21;5.15;;;3.30;;
17127;SDS011;8679;50.842;4.322;2023-08-12T07:41:47;7.82;;;3.80;;
17127;SDS011;8679;50.842;4.322;2023-08-12T07:44:14;4.13;;;2.92;;
17127;SDS011;8679;50.842;4.322;2023-08-12T07:46:40;5.75;;;3.88;;
17127;SDS011;8679;50.842;4.322;2023-08-12T07:49:06;9.13;;;4.43;;
17127;SDS011;8679;50.842;4.322;2023-08-12T07:51:32;6.40;;;3.70;;
17127;SDS011;8679;50.842;4.322;2023-08-12T07:53:58;7.55;;;4.22;;
17127;SDS011;8679;50.842;4.322;2023-08-12T07:56:25;8.35;;;4.82;;
17127;SDS011;8679;50.842;4.322;2023-08-12T07:58:51;8.95;;;4.25;;
17127;SDS011;8679;50.842;4.322;2023-08-12T08:01:18;7.13;;;3.30;;
17127;SDS011;8679;50.842;4.322;2023-08-12T08:03:44;3.10;;;2.42;;
17127;SDS011;8679;50.842;4.322;2023-08-12T08:06:10;3.88;;;2.42;;
17127;SDS011;8679;50.842;4.322;2023-08-12T08:08:36;5.05;;;2.65;;
17127;SDS011;8679;50.842;4.322;2023-08-12T08:11:02;3.10;;;2.20;;
17127;SDS011;8679;50.842;4.322;2023-08-12T08:13:28;2.45;;;1.42;;
17127;SDS011;8679;50.842;4.322;2023-08-12T08:15:54;2.03;;;1.42;;
17127;SDS011;8679;50.842;4.322;2023-08-12T08:18:21;4.38;;;2.67;;
17127;SDS011;8679;50.842;4.322;2023-08-12T08:20:47;3.13;;;1.98;;
17127;SDS011;8679;50.842;4.322;2023-08-12T08:23:13;3.17;;;2.10;;
17127;SDS011;8679;50.842;4.322;2023-08-12T08:25:39;3.35;;;1.60;;
17127;SDS011;8679;50.842;4.322;2023-08-12T08:28:06;2.67;;;1.25;;
17127;SDS011;8679;50.842;4.322;2023-08-12T08:30:33;1.52;;;1.10;;
17127;SDS011;8679;50.842;4.322;2023-08-12T08:32:59;2.03;;;1.20;;
17127;SDS011;8679;50.842;4.322;2023-08-12T08:35:25;1.77;;;1.08;;
17127;SDS011;8679;50.842;4.322;2023-08-12T08:37:52;1.27;;;1.17;;
17127;SDS011;8679;50.842;4.322;2023-08-12T08:40:19;2.20;;;1.05;;
17127;SDS011;8679;50.842;4.322;2023-08-12T08:42:45;1.70;;;0.90;;
17127;SDS011;8679;50.842;4.322;2023-08-12T08:45:13;1.20;;;0.88;;
17127;SDS011;8679;50.842;4.322;2023-08-12T08:47:39;0.68;;;0.57;;
17127;SDS011;8679;50.842;4.322;2023-08-12T08:50:06;0.52;;;0.52;;
17127;SDS011;8679;50.842;4.322;2023-08-12T08:52:34;1.00;;;0.80;;
17127;SDS011;8679;50.842;4.322;2023-08-12T08:55:01;0.93;;;0.70;;
17127;SDS011;8679;50.842;4.322;2023-08-12T08:57:27;1.35;;;0.93;;
17127;SDS011;8679;50.842;4.322;2023-08-12T08:59:54;2.95;;;1.35;;
17127;SDS011;8679;50.842;4.322;2023-08-12T09:02:20;1.40;;;0.80;;
17127;SDS011;8679;50.842;4.322;2023-08-12T09:04:46;0.95;;;0.95;;
17127;SDS011;8679;50.842;4.322;2023-08-12T09:07:13;1.20;;;0.60;;
17127;SDS011;8679;50.842;4.322;2023-08-12T09:09:39;0.75;;;0.60;;
17127;SDS011;8679;50.842;4.322;2023-08-12T09:12:07;1.40;;;0.43;;
17127;SDS011;8679;50.842;4.322;2023-08-12T09:14:34;1.38;;;0.68;;
17127;SDS011;8679;50.842;4.322;2023-08-12T09:17:00;1.10;;;0.55;;
17127;SDS011;8679;50.842;4.322;2023-08-12T09:19:27;1.48;;;0.70;;
17127;SDS011;8679;50.842;4.322;2023-08-12T09:21:54;2.70;;;0.70;;
17127;SDS011;8679;50.842;4.322;2023-08-12T09:24:26;0.50;;;0.40;;
17127;SDS011;8679;50.842;4.322;2023-08-12T09:26:54;0.77;;;0.52;;
17127;SDS011;8679;50.842;4.322;2023-08-12T09:29:24;0.63;;;0.50;;
17127;SDS011;8679;50.842;4.322;2023-08-12T09:31:54;1.58;;;0.20;;
17127;SDS011;8679;50.842;4.322;2023-08-12T09:34:30;1.63;;;0.43;;
17127;SDS011;8679;50.842;4.322;2023-08-12T09:36:56;0.68;;;0.52;;
17127;SDS011;8679;50.842;4.322;2023-08-12T09:39:22;1.67;;;0.88;;
17127;SDS011;8679;50.842;4.322;2023-08-12T09:41:49;0.88;;;0.65;;
17127;SDS011;8679;50.842;4.322;2023-08-12T09:44:15;0.90;;;0.47;;
17127;SDS011;8679;50.842;4.322;2023-08-12T09:46:41;1.25;;;0.50;;
17127;SDS011;8679;50.842;4.322;2023-08-12T09:49:07;0.35;;;0.30;;
17127;SDS011;8679;50.842;4.322;2023-08-12T09:51:35;0.63;;;0.60;;
17127;SDS011;8679;50.842;4.322;2023-08-12T09:54:01;2.95;;;0.65;;
17127;SDS011;8679;50.842;4.322;2023-08-12T09:56:28;0.35;;;0.30;;
17127;SDS011;8679;50.842;4.322;2023-08-12T09:58:56;2.78;;;1.10;;
17127;SDS011;8679;50.842;4.322;2023-08-12T10:01:22;0.45;;;0.30;;
17127;SDS011;8679;50.842;4.322;2023-08-12T10:03:50;0.43;;;0.30;;
17127;SDS011;8679;50.842;4.322;2023-08-12T10:06:16;1.77;;;0.82;;
17127;SDS011;8679;50.842;4.322;2023-08-12T10:08:43;0.32;;;0.32;;
17127;SDS011;8679;50.842;4.322;2023-08-12T10:11:09;1.63;;;0.60;;
17127;SDS011;8679;50.842;4.322;2023-08-12T10:13:35;1.17;;;1.08;;
17127;SDS011;8679;50.842;4.322;2023-08-12T10:16:02;1.10;;;1.05;;
17127;SDS011;8679;50.842;4.322;2023-08-12T10:18:28;2.58;;;1.55;;
17127;SDS011;8679;50.842;4.322;2023-08-12T10:20:56;0.57;;;0.50;;
17127;SDS011;8679;50.842;4.322;2023-08-12T10:23:23;3.22;;;1.20;;
17127;SDS011;8679;50.842;4.322;2023-08-12T10:25:50;2.78;;;0.57;;
17127;SDS011;8679;50.842;4.322;2023-08-12T10:28:19;1.20;;;0.57;;
17127;SDS011;8679;50.842;4.322;2023-08-12T10:30:48;0.50;;;0.30;;
17127;SDS011;8679;50.842;4.322;2023-08-12T10:33:15;0.50;;;0.30;;
17127;SDS011;8679;50.842;4.322;2023-08-12T10:35:45;0.60;;;0.43;;
17127;SDS011;8679;50.842;4.322;2023-08-12T10:38:13;0.70;;;0.60;;
17127;SDS011;8679;50.842;4.322;2023-08-12T10:40:39;0.63;;;0.40;;
17127;SDS011;8679;50.842;4.322;2023-08-12T10:43:05;0.63;;;0.50;;
17127;SDS011;8679;50.842;4.322;2023-08-12T10:45:41;2.55;;;0.43;;
17127;SDS011;8679;50.842;4.322;2023-08-12T10:50:34;0.80;;;0.55;;
17127;SDS011;8679;50.842;4.322;2023-08-12T10:53:20;0.30;;;0.30;;
17127;SDS011;8679;50.842;4.322;2023-08-12T10:55:48;0.90;;;0.65;;
17127;SDS011;8679;50.842;4.322;2023-08-12T10:58:23;1.17;;;0.40;;
17127;SDS011;8679;50.842;4.322;2023-08-12T11:00:54;0.55;;;0.43;;
17127;SDS011;8679;50.842;4.322;2023-08-12T11:03:20;0.30;;;0.20;;
17127;SDS011;8679;50.842;4.322;2023-08-12T11:05:46;1.15;;;0.50;;
17127;SDS011;8679;50.842;4.322;2023-08-12T11:08:13;0.38;;;0.30;;
17127;SDS011;8679;50.842;4.322;2023-08-12T11:10:39;1.85;;;0.28;;
17127;SDS011;8679;50.842;4.322;2023-08-12T11:13:05;1.25;;;0.40;;
17127;SDS011;8679;50.842;4.322;2023-08-12T11:15:32;1.15;;;0.60;;
17127;SDS011;8679;50.842;4.322;2023-08-12T11:18:01;1.85;;;0.63;;
17127;SDS011;8679;50.842;4.322;2023-08-12T11:20:30;2.55;;;0.68;;
17127;SDS011;8679;50.842;4.322;2023-08-12T11:22:56;1.65;;;0.63;;
17127;SDS011;8679;50.842;4.322;2023-08-12T11:25:27;0.95;;;0.40;;
17127;SDS011;8679;50.842;4.322;2023-08-12T11:27:54;3.10;;;0.65;;
17127;SDS011;8679;50.842;4.322;2023-08-12T11:30:20;1.85;;;0.80;;
17127;SDS011;8679;50.842;4.322;2023-08-12T11:32:48;0.75;;;0.50;;
17127;SDS011;8679;50.842;4.322;2023-08-12T11:35:14;1.90;;;0.50;;
17127;SDS011;8679;50.842;4.322;2023-08-12T11:37:42;0.60;;;0.35;;
17127;SDS011;8679;50.842;4.322;2023-08-12T11:40:09;0.93;;;0.60;;
17127;SDS011;8679;50.842;4.322;2023-08-12T11:42:36;0.47;;;0.20;;
17127;SDS011;8679;50.842;4.322;2023-08-12T11:45:03;1.98;;;0.60;;
17127;SDS011;8679;50.842;4.322;2023-08-12T11:47:29;0.73;;;0.43;;
17127;SDS011;8679;50.842;4.322;2023-08-12T11:49:55;0.45;;;0.45;;
17127;SDS011;8679;50.842;4.322;2023-08-12T11:52:21;1.50;;;0.30;;
17127;SDS011;8679;50.842;4.322;2023-08-12T11:54:48;1.30;;;0.50;;
17127;SDS011;8679;50.842;4.322;2023-08-12T11:57:15;2.70;;;0.50;;
17127;SDS011;8679;50.842;4.322;2023-08-12T11:59:42;1.75;;;0.40;;
17127;SDS011;8679;50.842;4.322;2023-08-12T12:02:09;1.75;;;0.82;;
17127;SDS011;8679;50.842;4.322;2023-08-12T12:04:35;0.40;;;0.30;;
17127;SDS011;8679;50.842;4.322;2023-08-12T12:07:01;3.22;;;0.50;;
17127;SDS011;8679;50.842;4.322;2023-08-12T12:09:31;1.20;;;0.50;;
17127;SDS011;8679;50.842;4.322;2023-08-12T12:11:57;2.85;;;0.82;;
17127;SDS011;8679;50.842;4.322;2023-08-12T12:14:24;1.08;;;0.50;;
17127;SDS011;8679;50.842;4.322;2023-08-12T12:16:50;2.15;;;0.50;;
17127;SDS011;8679;50.842;4.322;2023-08-12T12:21:42;1.60;;;0.40;;
17127;SDS011;8679;50.842;4.322;2023-08-12T12:24:10;0.85;;;0.63;;
17127;SDS011;8679;50.842;4.322;2023-08-12T12:26:36;3.33;;;0.80;;
17127;SDS011;8679;50.842;4.322;2023-08-12T12:29:03;0.93;;;0.35;;
17127;SDS011;8679;50.842;4.322;2023-08-12T12:31:29;1.65;;;0.80;;
17127;SDS011;8679;50.842;4.322;2023-08-12T12:33:55;0.20;;;0.20;;
17127;SDS011;8679;50.842;4.322;2023-08-12T12:36:21;1.40;;;0.40;;
17127;SDS011;8679;50.842;4.322;2023-08-12T12:38:47;0.30;;;0.30;;
17127;SDS011;8679;50.842;4.322;2023-08-12T12:41:13;1.85;;;0.55;;
17127;SDS011;8679;50.842;4.322;2023-08-12T12:43:39;0.60;;;0.47;;
17127;SDS011;8679;50.842;4.322;2023-08-12T12:46:05;1.38;;;0.90;;
17127;SDS011;8679;50.842;4.322;2023-08-12T12:48:32;0.80;;;0.68;;
17127;SDS011;8679;50.842;4.322;2023-08-12T12:50:58;1.05;;;0.70;;
17127;SDS011;8679;50.842;4.322;2023-08-12T12:53:25;0.63;;;0.50;;
17127;SDS011;8679;50.842;4.322;2023-08-12T12:55:51;0.65;;;0.60;;
17127;SDS011;8679;50.842;4.322;2023-08-12T12:58:17;0.40;;;0.40;;
17127;SDS011;8679;50.842;4.322;2023-08-12T13:00:43;0.82;;;0.68;;
17127;SDS011;8679;50.842;4.322;2023-08-12T13:03:09;2.40;;;0.60;;
17127;SDS011;8679;50.842;4.322;2023-08-12T13:05:35;0.90;;;0.80;;
17127;SDS011;8679;50.842;4.322;2023-08-12T13:08:01;1.80;;;0.88;;
17127;SDS011;8679;50.842;4.322;2023-08-12T13:10:27;1.00;;;0.70;;
17127;SDS011;8679;50.842;4.322;2023-08-12T13:12:53;1.30;;;0.75;;
17127;SDS011;8679;50.842;4.322;2023-08-12T13:15:19;1.83;;;0.90;;
17127;SDS011;8679;50.842;4.322;2023-08-12T13:17:45;1.92;;;1.00;;
17127;SDS011;8679;50.842;4.322;2023-08-12T13:20:11;3.70;;;0.73;;
17127;SDS011;8679;50.842;4.322;2023-08-12T13:22:38;1.02;;;0.90;;
17127;SDS011;8679;50.842;4.322;2023-08-12T13:25:04;0.45;;;0.40;;
17127;SDS011;8679;50.842;4.322;2023-08-12T13:27:31;2.58;;;0.73;;
17127;SDS011;8679;50.842;4.322;2023-08-12T13:29:58;1.65;;;0.82;;
17127;SDS011;8679;50.842;4.322;2023-08-12T13:32:24;2.60;;;0.50;;
17127;SDS011;8679;50.842;4.322;2023-08-12T13:34:50;2.33;;;1.10;;
17127;SDS011;8679;50.842;4.322;2023-08-12T13:37:16;1.15;;;0.57;;
17127;SDS011;8679;50.842;4.322;2023-08-12T13:39:42;0.55;;;0.55;;
17127;SDS011;8679;50.842;4.322;2023-08-12T13:42:08;1.83;;;0.45;;
17127;SDS011;8679;50.842;4.322;2023-08-12T13:44:34;1.33;;;0.50;;
17127;SDS011;8679;50.842;4.322;2023-08-12T13:47:00;0.47;;;0.35;;
17127;SDS011;8679;50.842;4.322;2023-08-12T13:49:26;0.88;;;0.50;;
17127;SDS011;8679;50.842;4.322;2023-08-12T13:51:52;4.45;;;0.70;;
17127;SDS011;8679;50.842;4.322;2023-08-12T13:54:18;0.38;;;0.30;;
17127;SDS011;8679;50.842;4.322;2023-08-12T13:56:44;0.60;;;0.40;;
17127;SDS011;8679;50.842;4.322;2023-08-12T13:59:10;2.40;;;0.80;;
17127;SDS011;8679;50.842;4.322;2023-08-12T14:01:36;1.05;;;0.77;;
17127;SDS011;8679;50.842;4.322;2023-08-12T14:04:03;0.90;;;0.43;;
17127;SDS011;8679;50.842;4.322;2023-08-12T14:06:29;0.80;;;0.55;;
17127;SDS011;8679;50.842;4.322;2023-08-12T14:08:55;3.28;;;0.73;;
17127;SDS011;8679;50.842;4.322;2023-08-12T14:11:21;0.45;;;0.43;;
17127;SDS011;8679;50.842;4.322;2023-08-12T14:13:47;1.60;;;0.52;;
17127;SDS011;8679;50.842;4.322;2023-08-12T14:16:13;0.98;;;0.50;;
17127;SDS011;8679;50.842;4.322;2023-08-12T14:18:39;0.50;;;0.40;;
17127;SDS011;8679;50.842;4.322;2023-08-12T14:21:05;0.57;;;0.47;;
17127;SDS011;8679;50.842;4.322;2023-08-12T14:23:31;1.73;;;0.40;;
17127;SDS011;8679;50.842;4.322;2023-08-12T14:25:57;3.60;;;1.10;;
17127;SDS011;8679;50.842;4.322;2023-08-12T14:28:23;0.63;;;0.40;;
17127;SDS011;8679;50.842;4.322;2023-08-12T14:30:49;0.50;;;0.40;;
17127;SDS011;8679;50.842;4.322;2023-08-12T14:33:15;1.05;;;0.45;;
17127;SDS011;8679;50.842;4.322;2023-08-12T14:35:41;1.52;;;0.73;;
17127;SDS011;8679;50.842;4.322;2023-08-12T14:38:07;0.73;;;0.30;;
17127;SDS011;8679;50.842;4.322;2023-08-12T14:40:33;0.55;;;0.40;;
17127;SDS011;8679;50.842;4.322;2023-08-12T14:42:59;1.00;;;0.55;;
17127;SDS011;8679;50.842;4.322;2023-08-12T14:45:25;1.00;;;0.60;;
17127;SDS011;8679;50.842;4.322;2023-08-12T14:47:51;2.08;;;0.57;;
17127;SDS011;8679;50.842;4.322;2023-08-12T14:50:17;0.82;;;0.47;;
17127;SDS011;8679;50.842;4.322;2023-08-12T14:52:43;0.60;;;0.60;;
17127;SDS011;8679;50.842;4.322;2023-08-12T14:55:09;1.83;;;0.60;;
17127;SDS011;8679;50.842;4.322;2023-08-12T14:57:35;1.98;;;0.70;;
17127;SDS011;8679;50.842;4.322;2023-08-12T15:00:02;0.70;;;0.38;;
17127;SDS011;8679;50.842;4.322;2023-08-12T15:02:28;1.90;;;0.77;;
17127;SDS011;8679;50.842;4.322;2023-08-12T15:04:54;1.13;;;0.70;;